sensor_id;sensor_type;location;lat;lon;timestamp;pressure;altitude;pressure_sealevel;temperature;humidity
20656;BME280;10487;53.320;8.672;2023-06-05T00:02:04;102164.09;;;9.18;42.36
20656;BME280;10487;53.320;8.672;2023-06-05T00:05:06;102164.31;;;9.13;42.52
20656;BME280;10487;53.320;8.672;2023-06-05T00:08:10;102160.91;;;9.10;42.47
20656;BME280;10487;53.320;8.672;2023-06-05T00:11:13;102158.47;;;9.05;42.32
20656;BME280;10487;53.320;8.672;2023-06-05T00:14:14;102159.59;;;9.00;42.57
20656;BME280;10487;53.320;8.672;2023-06-05T00:17:16;102154.47;;;8.95;42.61
20656;BME280;10487;53.320;8.672;2023-06-05T00:20:18;102152.91;;;8.91;42.68
20656;BME280;10487;53.320;8.672;2023-06-05T00:23:19;102155.69;;;8.88;42.62
20656;BME280;10487;53.320;8.672;2023-06-05T00:26:21;102162.16;;;8.83;42.63
20656;BME280;10487;53.320;8.672;2023-06-05T00:29:23;102157.03;;;8.78;42.73
20656;BME280;10487;53.320;8.672;2023-06-05T00:32:25;102155.44;;;8.74;42.70
20656;BME280;10487;53.320;8.672;2023-06-05T00:35:26;102152.03;;;8.71;42.68
20656;BME280;10487;53.320;8.672;2023-06-05T00:38:28;102149.59;;;8.66;42.88
20656;BME280;10487;53.320;8.672;2023-06-05T00:41:30;102145.41;;;8.60;42.94
20656;BME280;10487;53.320;8.672;2023-06-05T00:44:32;102148.19;;;8.57;42.90
20656;BME280;10487;53.320;8.672;2023-06-05T00:47:33;102152.78;;;8.54;42.95
20656;BME280;10487;53.320;8.672;2023-06-05T00:50:35;102160.91;;;8.51;42.96
20656;BME280;10487;53.320;8.672;2023-06-05T00:53:39;102153.03;;;8.48;43.03
20656;BME280;10487;53.320;8.672;2023-06-05T00:56:42;102147.91;;;8.43;43.01
20656;BME280;10487;53.320;8.672;2023-06-05T00:59:44;102150.78;;;8.39;42.99
20656;BME280;10487;53.320;8.672;2023-06-05T01:02:46;102144.72;;;8.35;43.23
20656;BME280;10487;53.320;8.672;2023-06-05T01:05:48;102147.44;;;8.34;43.00
20656;BME280;10487;53.320;8.672;2023-06-05T01:08:50;102146.69;;;8.30;43.05
20656;BME280;10487;53.320;8.672;2023-06-05T01:11:57;102159.19;;;8.28;43.16
20656;BME280;10487;53.320;8.672;2023-06-05T01:15:01;102156.75;;;8.24;43.04
20656;BME280;10487;53.320;8.672;2023-06-05T01:18:04;102143.56;;;8.21;43.16
20656;BME280;10487;53.320;8.672;2023-06-05T01:21:13;102146.34;;;8.18;43.39
20656;BME280;10487;53.320;8.672;2023-06-05T01:24:15;102142.97;;;8.14;43.23
20656;BME280;10487;53.320;8.672;2023-06-05T01:30:31;102139.63;;;8.09;43.37
20656;BME280;10487;53.320;8.672;2023-06-05T01:36:43;102134.59;;;8.02;43.50
20656;BME280;10487;53.320;8.672;2023-06-05T01:39:47;102140.09;;;7.97;43.47
20656;BME280;10487;53.320;8.672;2023-06-05T01:42:50;102131.38;;;7.93;43.43
20656;BME280;10487;53.320;8.672;2023-06-05T01:45:53;102127.94;;;7.91;43.38
20656;BME280;10487;53.320;8.672;2023-06-05T01:48:58;102126.25;;;7.89;43.47
20656;BME280;10487;53.320;8.672;2023-06-05T01:52:02;102126.38;;;7.86;43.55
20656;BME280;10487;53.320;8.672;2023-06-05T01:55:04;102122.06;;;7.83;43.68
20656;BME280;10487;53.320;8.672;2023-06-05T01:58:06;102121.34;;;7.80;43.68
20656;BME280;10487;53.320;8.672;2023-06-05T02:01:08;102113.47;;;7.77;43.74
20656;BME280;10487;53.320;8.672;2023-06-05T02:04:10;102110.03;;;7.75;43.84
20656;BME280;10487;53.320;8.672;2023-06-05T02:07:12;102113.59;;;7.74;43.69
20656;BME280;10487;53.320;8.672;2023-06-05T02:10:14;102114.56;;;7.71;43.63
20656;BME280;10487;53.320;8.672;2023-06-05T02:13:16;102105.75;;;7.71;43.75
20656;BME280;10487;53.320;8.672;2023-06-05T02:16:20;102101.47;;;7.67;43.82
20656;BME280;10487;53.320;8.672;2023-06-05T02:19:22;102103.34;;;7.65;43.91
20656;BME280;10487;53.320;8.672;2023-06-05T02:22:24;102102.59;;;7.61;43.83
20656;BME280;10487;53.320;8.672;2023-06-05T02:25:25;102100.03;;;7.58;43.93
20656;BME280;10487;53.320;8.672;2023-06-05T02:28:28;102096.59;;;7.56;43.83
20656;BME280;10487;53.320;8.672;2023-06-05T02:31:29;102093.13;;;7.54;43.87
20656;BME280;10487;53.320;8.672;2023-06-05T02:34:32;102090.59;;;7.51;43.91
20656;BME280;10487;53.320;8.672;2023-06-05T02:37:34;102091.53;;;7.50;43.97
20656;BME280;10487;53.320;8.672;2023-06-05T02:40:38;102092.44;;;7.49;43.90
20656;BME280;10487;53.320;8.672;2023-06-05T02:43:40;102090.78;;;7.47;44.01
20656;BME280;10487;53.320;8.672;2023-06-05T02:46:42;102091.69;;;7.46;44.05
20656;BME280;10487;53.320;8.672;2023-06-05T02:49:43;102084.69;;;7.45;43.83
20656;BME280;10487;53.320;8.672;2023-06-05T02:52:45;102084.69;;;7.45;43.96
20656;BME280;10487;53.320;8.672;2023-06-05T02:55:47;102086.53;;;7.43;44.08
20656;BME280;10487;53.320;8.672;2023-06-05T02:58:49;102087.53;;;7.40;44.09
20656;BME280;10487;53.320;8.672;2023-06-05T03:01:51;102090.22;;;7.39;44.22
20656;BME280;10487;53.320;8.672;2023-06-05T03:04:53;102091.19;;;7.36;44.14
20656;BME280;10487;53.320;8.672;2023-06-05T03:07:57;102080.69;;;7.33;44.17
20656;BME280;10487;53.320;8.672;2023-06-05T03:10:59;102078.19;;;7.30;44.22
20656;BME280;10487;53.320;8.672;2023-06-05T03:14:01;102076.44;;;7.29;44.22
20656;BME280;10487;53.320;8.672;2023-06-05T03:17:03;102080.00;;;7.28;44.26
20656;BME280;10487;53.320;8.672;2023-06-05T03:20:05;102074.84;;;7.25;44.18
20656;BME280;10487;53.320;8.672;2023-06-05T03:23:10;102078.41;;;7.24;44.31
20656;BME280;10487;53.320;8.672;2023-06-05T03:26:12;102078.47;;;7.22;44.46
20656;BME280;10487;53.320;8.672;2023-06-05T03:29:13;102074.94;;;7.22;44.26
20656;BME280;10487;53.320;8.672;2023-06-05T03:32:16;102067.06;;;7.20;44.36
20656;BME280;10487;53.320;8.672;2023-06-05T03:35:18;102074.84;;;7.25;44.56
20656;BME280;10487;53.320;8.672;2023-06-05T03:38:19;102074.28;;;7.39;44.62
20656;BME280;10487;53.320;8.672;2023-06-05T03:41:21;102073.38;;;7.40;44.62
20656;BME280;10487;53.320;8.672;2023-06-05T03:44:23;102072.50;;;7.39;44.52
20656;BME280;10487;53.320;8.672;2023-06-05T03:47:25;102068.09;;;7.38;44.58
20656;BME280;10487;53.320;8.672;2023-06-05T03:50:30;102070.81;;;7.37;44.46
20656;BME280;10487;53.320;8.672;2023-06-05T03:53:32;102077.91;;;7.36;44.57
20656;BME280;10487;53.320;8.672;2023-06-05T03:56:33;102070.59;;;7.43;44.69
20656;BME280;10487;53.320;8.672;2023-06-05T03:59:36;102079.94;;;7.53;44.90
20656;BME280;10487;53.320;8.672;2023-06-05T04:02:37;102083.00;;;7.64;44.62
20656;BME280;10487;53.320;8.672;2023-06-05T04:05:39;102084.38;;;7.74;44.92
20656;BME280;10487;53.320;8.672;2023-06-05T04:08:41;102085.63;;;7.85;44.72
20656;BME280;10487;53.320;8.672;2023-06-05T04:11:44;102084.34;;;7.95;44.95
20656;BME280;10487;53.320;8.672;2023-06-05T04:14:46;102096.22;;;8.09;44.93
20656;BME280;10487;53.320;8.672;2023-06-05T04:17:48;102082.53;;;8.18;45.14
20656;BME280;10487;53.320;8.672;2023-06-05T04:20:50;102090.25;;;8.24;45.09
20656;BME280;10487;53.320;8.672;2023-06-05T04:23:52;102083.00;;;8.27;45.07
20656;BME280;10487;53.320;8.672;2023-06-05T04:26:54;102084.53;;;8.33;45.36
20656;BME280;10487;53.320;8.672;2023-06-05T04:29:56;102086.19;;;8.35;45.39
20656;BME280;10487;53.320;8.672;2023-06-05T04:32:58;102089.47;;;8.42;45.38
20656;BME280;10487;53.320;8.672;2023-06-05T04:36:01;102088.31;;;8.47;45.27
20656;BME280;10487;53.320;8.672;2023-06-05T04:39:03;102077.50;;;8.52;45.38
20656;BME280;10487;53.320;8.672;2023-06-05T04:42:05;102084.31;;;8.57;45.41
20656;BME280;10487;53.320;8.672;2023-06-05T04:45:14;102079.63;;;8.64;45.49
20656;BME280;10487;53.320;8.672;2023-06-05T04:48:18;102070.66;;;8.85;45.54
20656;BME280;10487;53.320;8.672;2023-06-05T04:51:19;102074.88;;;8.89;45.53
20656;BME280;10487;53.320;8.672;2023-06-05T04:54:21;102075.06;;;8.86;45.47
20656;BME280;10487;53.320;8.672;2023-06-05T04:57:25;102081.50;;;8.81;45.50
20656;BME280;10487;53.320;8.672;2023-06-05T05:00:27;102074.66;;;8.75;45.49
20656;BME280;10487;53.320;8.672;2023-06-05T05:03:29;102085.44;;;8.72;45.59
20656;BME280;10487;53.320;8.672;2023-06-05T05:06:31;102082.06;;;8.69;45.60
20656;BME280;10487;53.320;8.672;2023-06-05T05:09:33;102087.44;;;8.67;45.79
20656;BME280;10487;53.320;8.672;2023-06-05T05:12:34;102083.97;;;8.65;45.76
20656;BME280;10487;53.320;8.672;2023-06-05T05:15:36;102082.31;;;8.62;45.80
20656;BME280;10487;53.320;8.672;2023-06-05T05:18:39;102075.22;;;8.63;45.77
20656;BME280;10487;53.320;8.672;2023-06-05T05:21:41;102082.28;;;8.64;45.83
20656;BME280;10487;53.320;8.672;2023-06-05T05:24:43;102086.72;;;8.63;45.85
20656;BME280;10487;53.320;8.672;2023-06-05T05:27:45;102088.38;;;8.66;45.97
20656;BME280;10487;53.320;8.672;2023-06-05T05:30:46;102084.78;;;8.67;45.85
20656;BME280;10487;53.320;8.672;2023-06-05T05:33:48;102081.97;;;8.70;45.97
20656;BME280;10487;53.320;8.672;2023-06-05T05:36:50;102087.19;;;8.73;46.00
20656;BME280;10487;53.320;8.672;2023-06-05T05:39:52;102096.81;;;8.76;46.09
20656;BME280;10487;53.320;8.672;2023-06-05T05:42:53;102091.28;;;8.80;45.97
20656;BME280;10487;53.320;8.672;2023-06-05T05:45:55;102083.97;;;8.85;45.95
20656;BME280;10487;53.320;8.672;2023-06-05T05:48:57;102090.84;;;8.89;46.15
20656;BME280;10487;53.320;8.672;2023-06-05T05:51:58;102087.06;;;8.95;46.14
20656;BME280;10487;53.320;8.672;2023-06-05T05:55:00;102086.72;;;9.02;46.05
20656;BME280;10487;53.320;8.672;2023-06-05T05:58:04;102088.22;;;9.08;46.15
20656;BME280;10487;53.320;8.672;2023-06-05T06:01:06;102094.22;;;9.13;46.17
20656;BME280;10487;53.320;8.672;2023-06-05T06:04:08;102080.63;;;9.19;46.15
20656;BME280;10487;53.320;8.672;2023-06-05T06:07:10;102088.22;;;9.26;46.25
20656;BME280;10487;53.320;8.672;2023-06-05T06:10:11;102078.84;;;9.38;46.22
20656;BME280;10487;53.320;8.672;2023-06-05T06:13:14;102084.44;;;9.51;46.31
20656;BME280;10487;53.320;8.672;2023-06-05T06:16:15;102082.09;;;9.62;46.26
20656;BME280;10487;53.320;8.672;2023-06-05T06:19:17;102085.13;;;9.73;46.28
20656;BME280;10487;53.320;8.672;2023-06-05T06:22:24;102094.41;;;9.83;46.30
20656;BME280;10487;53.320;8.672;2023-06-05T06:25:28;102089.53;;;9.91;46.30
20656;BME280;10487;53.320;8.672;2023-06-05T06:28:30;102092.69;;;9.99;46.20
20656;BME280;10487;53.320;8.672;2023-06-05T06:31:31;102088.75;;;10.06;46.31
20656;BME280;10487;53.320;8.672;2023-06-05T06:34:33;102087.59;;;10.12;46.29
20656;BME280;10487;53.320;8.672;2023-06-05T06:37:36;102087.97;;;10.21;46.37
20656;BME280;10487;53.320;8.672;2023-06-05T06:40:38;102087.53;;;10.30;46.35
20656;BME280;10487;53.320;8.672;2023-06-05T06:43:39;102094.19;;;10.39;46.27
20656;BME280;10487;53.320;8.672;2023-06-05T06:46:41;102100.97;;;10.46;46.58
20656;BME280;10487;53.320;8.672;2023-06-05T06:49:43;102094.28;;;10.54;46.38
20656;BME280;10487;53.320;8.672;2023-06-05T06:52:44;102096.47;;;10.64;46.42
20656;BME280;10487;53.320;8.672;2023-06-05T06:55:46;102098.56;;;10.74;46.55
20656;BME280;10487;53.320;8.672;2023-06-05T06:58:48;102100.69;;;10.85;46.32
20656;BME280;10487;53.320;8.672;2023-06-05T07:05:11;102110.13;;;11.07;46.41
20656;BME280;10487;53.320;8.672;2023-06-05T07:08:13;102104.19;;;11.18;46.32
20656;BME280;10487;53.320;8.672;2023-06-05T07:11:15;102106.44;;;11.26;46.34
20656;BME280;10487;53.320;8.672;2023-06-05T07:14:16;102101.03;;;11.27;46.25
20656;BME280;10487;53.320;8.672;2023-06-05T07:17:18;102108.00;;;11.30;46.35
20656;BME280;10487;53.320;8.672;2023-06-05T07:20:20;102107.81;;;11.33;46.48
20656;BME280;10487;53.320;8.672;2023-06-05T07:23:21;102104.03;;;11.37;46.53
20656;BME280;10487;53.320;8.672;2023-06-05T07:26:23;102097.66;;;11.39;46.41
20656;BME280;10487;53.320;8.672;2023-06-05T07:29:26;102098.16;;;11.46;46.40
20656;BME280;10487;53.320;8.672;2023-06-05T07:32:28;102099.63;;;11.51;46.65
20656;BME280;10487;53.320;8.672;2023-06-05T07:35:30;102100.28;;;11.56;46.61
20656;BME280;10487;53.320;8.672;2023-06-05T07:38:34;102106.13;;;11.63;46.34
20656;BME280;10487;53.320;8.672;2023-06-05T07:41:35;102103.19;;;11.67;46.34
20656;BME280;10487;53.320;8.672;2023-06-05T07:44:37;102101.13;;;11.72;46.36
20656;BME280;10487;53.320;8.672;2023-06-05T07:47:38;102104.31;;;11.79;46.52
20656;BME280;10487;53.320;8.672;2023-06-05T07:50:41;102104.06;;;11.83;46.64
20656;BME280;10487;53.320;8.672;2023-06-05T07:53:43;102096.63;;;11.89;46.49
20656;BME280;10487;53.320;8.672;2023-06-05T07:56:46;102090.06;;;11.94;46.60
20656;BME280;10487;53.320;8.672;2023-06-05T07:59:50;102089.69;;;12.00;46.39
20656;BME280;10487;53.320;8.672;2023-06-05T08:02:52;102084.06;;;12.05;46.70
20656;BME280;10487;53.320;8.672;2023-06-05T08:05:55;102079.13;;;12.13;46.62
20656;BME280;10487;53.320;8.672;2023-06-05T08:08:56;102085.75;;;12.21;46.40
20656;BME280;10487;53.320;8.672;2023-06-05T08:11:58;102079.75;;;12.32;46.25
20656;BME280;10487;53.320;8.672;2023-06-05T08:15:00;102088.09;;;12.41;46.59
20656;BME280;10487;53.320;8.672;2023-06-05T08:18:03;102083.84;;;12.53;46.30
20656;BME280;10487;53.320;8.672;2023-06-05T08:21:04;102082.41;;;12.62;46.54
20656;BME280;10487;53.320;8.672;2023-06-05T08:24:08;102084.63;;;12.69;46.33
20656;BME280;10487;53.320;8.672;2023-06-05T08:27:10;102085.00;;;12.77;46.30
20656;BME280;10487;53.320;8.672;2023-06-05T08:30:11;102085.31;;;12.87;46.32
20656;BME280;10487;53.320;8.672;2023-06-05T08:33:13;102087.31;;;12.97;46.33
20656;BME280;10487;53.320;8.672;2023-06-05T08:36:15;102084.91;;;13.07;46.76
20656;BME280;10487;53.320;8.672;2023-06-05T08:39:18;102079.75;;;13.18;46.84
20656;BME280;10487;53.320;8.672;2023-06-05T08:42:19;102073.59;;;13.30;46.79
20656;BME280;10487;53.320;8.672;2023-06-05T08:45:22;102080.94;;;13.41;46.76
20656;BME280;10487;53.320;8.672;2023-06-05T08:48:24;102077.03;;;13.46;46.59
20656;BME280;10487;53.320;8.672;2023-06-05T08:51:26;102073.09;;;13.52;46.72
20656;BME280;10487;53.320;8.672;2023-06-05T08:54:32;102073.47;;;13.60;46.41
20656;BME280;10487;53.320;8.672;2023-06-05T08:57:38;102069.28;;;13.68;46.55
20656;BME280;10487;53.320;8.672;2023-06-05T09:00:41;102079.53;;;13.76;46.36
20656;BME280;10487;53.320;8.672;2023-06-05T09:03:43;102077.19;;;13.84;46.57
20656;BME280;10487;53.320;8.672;2023-06-05T09:06:47;102069.50;;;13.92;46.57
20656;BME280;10487;53.320;8.672;2023-06-05T09:09:49;102068.25;;;13.98;46.13
20656;BME280;10487;53.320;8.672;2023-06-05T09:12:54;102063.31;;;14.04;46.18
20656;BME280;10487;53.320;8.672;2023-06-05T09:15:56;102064.72;;;14.10;46.18
20656;BME280;10487;53.320;8.672;2023-06-05T09:18:59;102064.28;;;14.16;46.33
20656;BME280;10487;53.320;8.672;2023-06-05T09:22:01;102061.09;;;14.23;46.24
20656;BME280;10487;53.320;8.672;2023-06-05T09:25:03;102066.06;;;14.29;46.20
20656;BME280;10487;53.320;8.672;2023-06-05T09:28:06;102065.31;;;14.40;46.24
20656;BME280;10487;53.320;8.672;2023-06-05T09:31:10;102061.28;;;14.47;46.21
20656;BME280;10487;53.320;8.672;2023-06-05T09:34:23;102067.59;;;14.59;46.12
20656;BME280;10487;53.320;8.672;2023-06-05T09:37:36;102052.44;;;14.70;46.06
20656;BME280;10487;53.320;8.672;2023-06-05T09:40:39;102063.38;;;14.80;46.03
20656;BME280;10487;53.320;8.672;2023-06-05T09:43:42;102054.56;;;14.90;45.96
20656;BME280;10487;53.320;8.672;2023-06-05T09:49:52;102058.19;;;15.15;45.60
20656;BME280;10487;53.320;8.672;2023-06-05T09:52:55;102054.19;;;15.33;45.48
20656;BME280;10487;53.320;8.672;2023-06-05T09:55:57;102058.44;;;15.48;45.66
20656;BME280;10487;53.320;8.672;2023-06-05T09:58:59;102059.16;;;15.62;45.59
20656;BME280;10487;53.320;8.672;2023-06-05T10:02:04;102049.41;;;15.73;45.42
20656;BME280;10487;53.320;8.672;2023-06-05T10:05:08;102055.38;;;15.89;45.51
20656;BME280;10487;53.320;8.672;2023-06-05T10:08:11;102051.28;;;16.07;45.39
20656;BME280;10487;53.320;8.672;2023-06-05T10:11:15;102053.69;;;16.22;45.34
20656;BME280;10487;53.320;8.672;2023-06-05T10:14:18;102050.16;;;16.33;45.14
20656;BME280;10487;53.320;8.672;2023-06-05T10:17:21;102040.41;;;16.43;45.34
20656;BME280;10487;53.320;8.672;2023-06-05T10:20:24;102033.53;;;16.61;45.06
20656;BME280;10487;53.320;8.672;2023-06-05T10:23:26;102032.56;;;16.84;44.96
20656;BME280;10487;53.320;8.672;2023-06-05T10:36:32;102035.69;;;17.56;44.72
20656;BME280;10487;53.320;8.672;2023-06-05T10:39:41;102034.28;;;17.73;44.88
20656;BME280;10487;53.320;8.672;2023-06-05T10:42:43;102029.19;;;17.90;44.62
20656;BME280;10487;53.320;8.672;2023-06-05T10:45:45;102033.91;;;18.09;44.83
20656;BME280;10487;53.320;8.672;2023-06-05T10:52:37;102028.94;;;18.35;44.63
20656;BME280;10487;53.320;8.672;2023-06-05T10:55:42;102025.91;;;18.39;44.20
20656;BME280;10487;53.320;8.672;2023-06-05T10:59:13;102012.97;;;18.43;44.60
20656;BME280;10487;53.320;8.672;2023-06-05T11:05:18;102025.00;;;18.59;44.23
20656;BME280;10487;53.320;8.672;2023-06-05T11:08:20;102011.00;;;18.75;44.26
20656;BME280;10487;53.320;8.672;2023-06-05T11:11:22;102002.94;;;18.94;44.41
20656;BME280;10487;53.320;8.672;2023-06-05T11:14:24;102011.94;;;19.04;44.07
20656;BME280;10487;53.320;8.672;2023-06-05T11:17:33;102007.28;;;19.06;44.31
20656;BME280;10487;53.320;8.672;2023-06-05T11:23:36;102008.34;;;19.34;43.71
20656;BME280;10487;53.320;8.672;2023-06-05T11:26:39;102006.66;;;19.42;43.89
20656;BME280;10487;53.320;8.672;2023-06-05T11:29:42;101999.25;;;19.54;43.61
20656;BME280;10487;53.320;8.672;2023-06-05T11:32:45;101996.19;;;19.78;43.66
20656;BME280;10487;53.320;8.672;2023-06-05T11:35:48;101995.19;;;19.98;43.76
20656;BME280;10487;53.320;8.672;2023-06-05T11:38:53;101998.56;;;20.19;43.69
20656;BME280;10487;53.320;8.672;2023-06-05T11:41:57;101998.50;;;20.38;43.38
20656;BME280;10487;53.320;8.672;2023-06-05T11:44:59;101992.06;;;20.58;43.50
20656;BME280;10487;53.320;8.672;2023-06-05T11:48:14;101996.59;;;20.67;43.50
20656;BME280;10487;53.320;8.672;2023-06-05T11:51:15;101995.69;;;20.77;43.45
20656;BME280;10487;53.320;8.672;2023-06-05T11:54:31;101997.25;;;20.79;43.48
20656;BME280;10487;53.320;8.672;2023-06-05T11:57:42;101992.78;;;20.88;43.33
20656;BME280;10487;53.320;8.672;2023-06-05T12:01:04;101996.00;;;21.01;43.41
20656;BME280;10487;53.320;8.672;2023-06-05T12:04:07;101988.22;;;21.15;43.09
20656;BME280;10487;53.320;8.672;2023-06-05T12:07:09;101998.72;;;21.28;42.96
20656;BME280;10487;53.320;8.672;2023-06-05T12:10:11;101999.81;;;21.35;43.09
20656;BME280;10487;53.320;8.672;2023-06-05T12:13:12;101998.53;;;21.39;42.84
20656;BME280;10487;53.320;8.672;2023-06-05T12:16:15;102004.34;;;21.44;42.73
20656;BME280;10487;53.320;8.672;2023-06-05T12:19:17;101994.41;;;21.53;42.97
20656;BME280;10487;53.320;8.672;2023-06-05T12:22:20;101997.69;;;21.56;42.92
20656;BME280;10487;53.320;8.672;2023-06-05T12:25:22;101989.91;;;21.61;42.72
20656;BME280;10487;53.320;8.672;2023-06-05T12:28:24;101989.44;;;21.66;42.76
20656;BME280;10487;53.320;8.672;2023-06-05T12:31:35;101992.06;;;21.75;42.77
20656;BME280;10487;53.320;8.672;2023-06-05T12:34:47;101990.47;;;21.82;42.57
20656;BME280;10487;53.320;8.672;2023-06-05T12:37:59;101991.88;;;21.86;42.76
20656;BME280;10487;53.320;8.672;2023-06-05T12:41:01;101987.13;;;21.88;42.33
20656;BME280;10487;53.320;8.672;2023-06-05T12:44:06;101984.25;;;21.90;42.69
20656;BME280;10487;53.320;8.672;2023-06-05T12:47:09;101993.66;;;21.95;42.53
20656;BME280;10487;53.320;8.672;2023-06-05T12:50:11;101981.44;;;21.99;42.64
20656;BME280;10487;53.320;8.672;2023-06-05T12:53:14;101984.53;;;22.05;42.44
20656;BME280;10487;53.320;8.672;2023-06-05T12:56:15;101984.22;;;22.08;42.17
20656;BME280;10487;53.320;8.672;2023-06-05T12:59:18;101980.13;;;22.04;42.22
20656;BME280;10487;53.320;8.672;2023-06-05T13:02:20;101977.03;;;21.98;42.19
20656;BME280;10487;53.320;8.672;2023-06-05T13:05:22;101979.06;;;21.96;42.04
20656;BME280;10487;53.320;8.672;2023-06-05T13:08:23;101976.78;;;21.92;42.07
20656;BME280;10487;53.320;8.672;2023-06-05T13:11:26;101973.69;;;21.87;42.17
20656;BME280;10487;53.320;8.672;2023-06-05T13:14:27;101966.31;;;21.79;41.81
20656;BME280;10487;53.320;8.672;2023-06-05T13:17:29;101971.25;;;21.76;42.11
20656;BME280;10487;53.320;8.672;2023-06-05T13:20:35;101960.22;;;21.77;42.15
20656;BME280;10487;53.320;8.672;2023-06-05T13:23:36;101955.72;;;21.86;41.96
20656;BME280;10487;53.320;8.672;2023-06-05T13:26:38;101949.63;;;21.92;41.75
20656;BME280;10487;53.320;8.672;2023-06-05T13:29:40;101951.88;;;21.96;41.85
20656;BME280;10487;53.320;8.672;2023-06-05T13:32:41;101954.25;;;21.99;41.63
20656;BME280;10487;53.320;8.672;2023-06-05T13:35:46;101955.13;;;22.00;41.92
20656;BME280;10487;53.320;8.672;2023-06-05T13:38:47;101947.44;;;21.95;41.65
20656;BME280;10487;53.320;8.672;2023-06-05T13:41:49;101942.19;;;21.94;41.66
20656;BME280;10487;53.320;8.672;2023-06-05T13:44:51;101938.91;;;21.90;41.67
20656;BME280;10487;53.320;8.672;2023-06-05T13:47:52;101937.22;;;21.89;41.58
20656;BME280;10487;53.320;8.672;2023-06-05T13:50:54;101935.81;;;21.85;41.70
20656;BME280;10487;53.320;8.672;2023-06-05T13:53:56;101930.56;;;21.84;41.58
20656;BME280;10487;53.320;8.672;2023-06-05T13:57:00;101934.28;;;21.83;41.75
20656;BME280;10487;53.320;8.672;2023-06-05T14:00:02;101924.56;;;21.80;41.47
20656;BME280;10487;53.320;8.672;2023-06-05T14:03:04;101926.88;;;21.75;41.56
20656;BME280;10487;53.320;8.672;2023-06-05T14:06:06;101924.34;;;21.74;41.54
20656;BME280;10487;53.320;8.672;2023-06-05T14:09:09;101933.34;;;21.74;41.38
20656;BME280;10487;53.320;8.672;2023-06-05T14:12:11;101939.09;;;21.71;41.66
20656;BME280;10487;53.320;8.672;2023-06-05T14:15:12;101925.81;;;21.68;41.58
20656;BME280;10487;53.320;8.672;2023-06-05T14:18:14;101931.56;;;21.65;41.58
20656;BME280;10487;53.320;8.672;2023-06-05T14:21:16;101939.00;;;21.63;41.32
20656;BME280;10487;53.320;8.672;2023-06-05T14:24:17;101924.75;;;21.61;41.28
20656;BME280;10487;53.320;8.672;2023-06-05T14:27:21;101929.09;;;21.54;41.45
20656;BME280;10487;53.320;8.672;2023-06-05T14:30:23;101927.63;;;21.42;41.29
20656;BME280;10487;53.320;8.672;2023-06-05T14:33:25;101917.69;;;21.33;41.20
20656;BME280;10487;53.320;8.672;2023-06-05T14:36:28;101919.63;;;21.23;41.56
20656;BME280;10487;53.320;8.672;2023-06-05T14:39:29;101918.22;;;21.19;41.40
20656;BME280;10487;53.320;8.672;2023-06-05T14:42:31;101916.50;;;21.18;41.37
20656;BME280;10487;53.320;8.672;2023-06-05T14:45:33;101923.09;;;21.15;41.35
20656;BME280;10487;53.320;8.672;2023-06-05T14:48:34;101916.72;;;21.07;41.39
20656;BME280;10487;53.320;8.672;2023-06-05T14:51:36;101921.88;;;21.00;41.33
20656;BME280;10487;53.320;8.672;2023-06-05T14:54:38;101916.38;;;20.92;41.48
20656;BME280;10487;53.320;8.672;2023-06-05T14:57:43;101914.28;;;20.86;41.29
20656;BME280;10487;53.320;8.672;2023-06-05T15:00:45;101912.03;;;20.82;41.41
20656;BME280;10487;53.320;8.672;2023-06-05T15:03:47;101916.06;;;20.78;41.27
20656;BME280;10487;53.320;8.672;2023-06-05T15:06:49;101907.34;;;20.74;41.29
20656;BME280;10487;53.320;8.672;2023-06-05T15:09:53;101908.50;;;20.71;41.35
20656;BME280;10487;53.320;8.672;2023-06-05T15:12:54;101913.94;;;20.71;41.37
20656;BME280;10487;53.320;8.672;2023-06-05T15:15:58;101908.50;;;20.71;41.23
20656;BME280;10487;53.320;8.672;2023-06-05T15:19:01;101905.69;;;20.63;41.04
20656;BME280;10487;53.320;8.672;2023-06-05T15:22:02;101895.75;;;20.54;41.38
20656;BME280;10487;53.320;8.672;2023-06-05T15:25:05;101896.75;;;20.53;41.08
20656;BME280;10487;53.320;8.672;2023-06-05T15:28:06;101892.03;;;20.55;41.16
20656;BME280;10487;53.320;8.672;2023-06-05T15:31:08;101885.78;;;20.55;41.15
20656;BME280;10487;53.320;8.672;2023-06-05T15:34:10;101880.66;;;20.52;41.27
20656;BME280;10487;53.320;8.672;2023-06-05T15:37:12;101881.09;;;20.47;41.18
20656;BME280;10487;53.320;8.672;2023-06-05T15:40:13;101877.94;;;20.42;41.33
20656;BME280;10487;53.320;8.672;2023-06-05T15:43:15;101873.69;;;20.40;41.24
20656;BME280;10487;53.320;8.672;2023-06-05T15:46:17;101872.97;;;20.38;41.10
20656;BME280;10487;53.320;8.672;2023-06-05T15:49:19;101862.97;;;20.38;41.29
20656;BME280;10487;53.320;8.672;2023-06-05T15:52:21;101870.69;;;20.33;41.20
20656;BME280;10487;53.320;8.672;2023-06-05T15:55:22;101868.31;;;20.30;41.29
20656;BME280;10487;53.320;8.672;2023-06-05T15:58:24;101866.59;;;20.29;41.20
20656;BME280;10487;53.320;8.672;2023-06-05T16:01:25;101865.03;;;20.27;41.18
20656;BME280;10487;53.320;8.672;2023-06-05T16:04:27;101862.78;;;20.22;41.17
20656;BME280;10487;53.320;8.672;2023-06-05T16:07:29;101862.06;;;20.20;41.40
20656;BME280;10487;53.320;8.672;2023-06-05T16:10:31;101862.22;;;20.19;41.32
20656;BME280;10487;53.320;8.672;2023-06-05T16:13:32;101863.06;;;20.19;41.22
20656;BME280;10487;53.320;8.672;2023-06-05T16:16:34;101865.63;;;20.21;41.22
20656;BME280;10487;53.320;8.672;2023-06-05T16:19:36;101867.63;;;20.19;41.26
20656;BME280;10487;53.320;8.672;2023-06-05T16:22:37;101870.09;;;20.12;41.20
20656;BME280;10487;53.320;8.672;2023-06-05T16:25:39;101869.69;;;20.07;41.21
20656;BME280;10487;53.320;8.672;2023-06-05T16:28:41;101865.56;;;20.03;41.23
20656;BME280;10487;53.320;8.672;2023-06-05T16:31:42;101863.59;;;19.95;41.25
20656;BME280;10487;53.320;8.672;2023-06-05T16:34:44;101863.72;;;19.94;41.42